createdAt,value
2022-10-06T00:01:32.439Z,1.80
2022-10-06T00:04:03.202Z,1.80
2022-10-06T00:06:34.058Z,1.90
2022-10-06T00:09:04.737Z,1.80
2022-10-06T00:11:35.329Z,1.90
2022-10-06T00:14:06.346Z,2.00
2022-10-06T00:16:36.690Z,2.00
2022-10-06T00:19:07.326Z,2.10
2022-10-06T00:21:37.686Z,2.10
2022-10-06T00:24:08.657Z,1.90
2022-10-06T00:26:39.455Z,1.90
2022-10-06T00:29:09.824Z,2.10
2022-10-06T00:31:40.290Z,2.10
2022-10-06T00:34:11.013Z,2.00
2022-10-06T00:36:41.396Z,1.80
2022-10-06T00:39:12.053Z,2.10
2022-10-06T00:41:42.696Z,1.90
2022-10-06T00:44:13.328Z,2.20
2022-10-06T00:46:47.037Z,2.40
2022-10-06T00:49:21.853Z,1.80
2022-10-06T00:51:56.001Z,1.80
2022-10-06T00:54:27.318Z,1.60
2022-10-06T00:56:58.481Z,1.90
2022-10-06T00:59:29.038Z,2.20
2022-10-06T01:02:05.377Z,2.20
2022-10-06T01:04:41.650Z,2.60
2022-10-06T01:07:13.008Z,1.70
2022-10-06T01:09:43.517Z,1.50
2022-10-06T01:12:14.620Z,1.40
2022-10-06T01:14:45.230Z,1.20
2022-10-06T01:17:21.078Z,1.20
2022-10-06T01:19:56.408Z,1.00
2022-10-06T01:22:32.510Z,1.30
2022-10-06T01:25:03.377Z,0.80
2022-10-06T01:27:36.109Z,1.00
2022-10-06T01:30:10.149Z,0.80
2022-10-06T01:32:41.794Z,0.80
2022-10-06T01:35:13.310Z,1.10
2022-10-06T01:37:44.038Z,0.80
2022-10-06T01:40:14.591Z,0.80
2022-10-06T01:42:45.578Z,0.80
2022-10-06T01:45:15.970Z,0.90
2022-10-06T01:47:46.459Z,0.80
2022-10-06T01:50:17.201Z,1.00
2022-10-06T01:52:48.074Z,0.80
2022-10-06T01:55:19.409Z,0.80
2022-10-06T01:57:50.490Z,0.90
2022-10-06T02:00:21.331Z,1.20
2022-10-06T02:02:51.764Z,1.10
2022-10-06T02:05:22.793Z,1.10
2022-10-06T02:07:53.478Z,0.90
2022-10-06T02:10:24.163Z,0.90
2022-10-06T02:12:55.655Z,0.80
2022-10-06T02:15:26.983Z,0.90
2022-10-06T02:17:57.679Z,0.80
2022-10-06T02:20:29.007Z,0.60
2022-10-06T02:23:00.195Z,0.70
2022-10-06T02:25:30.821Z,0.80
2022-10-06T02:28:01.199Z,0.70
2022-10-06T02:30:31.884Z,0.60
2022-10-06T02:33:02.399Z,0.70
2022-10-06T02:35:33.027Z,0.70
2022-10-06T02:38:03.425Z,0.50
2022-10-06T02:40:34.894Z,0.70
2022-10-06T02:43:05.618Z,0.70
2022-10-06T02:45:37.179Z,0.60
2022-10-06T02:48:08.137Z,0.60
2022-10-06T02:50:39.381Z,0.80
2022-10-06T02:53:11.036Z,0.60
2022-10-06T02:55:41.965Z,0.60
2022-10-06T02:58:12.340Z,0.70
2022-10-06T03:00:43.024Z,0.70
2022-10-06T03:03:14.002Z,0.70
2022-10-06T03:05:44.674Z,0.70
2022-10-06T03:08:15.434Z,0.70
2022-10-06T03:10:46.382Z,0.70
2022-10-06T03:13:17.334Z,0.70
2022-10-06T03:15:48.006Z,0.80
2022-10-06T03:18:18.669Z,0.70
2022-10-06T03:20:49.325Z,0.80
2022-10-06T03:23:19.715Z,0.80
2022-10-06T03:25:59.145Z,0.70
2022-10-06T03:28:30.475Z,0.70
2022-10-06T03:31:06.111Z,0.90
2022-10-06T03:33:37.097Z,0.80
2022-10-06T03:36:09.602Z,1.00
2022-10-06T03:38:40.824Z,1.00
2022-10-06T03:41:13.018Z,1.00
2022-10-06T03:43:46.096Z,1.10
2022-10-06T03:46:18.560Z,0.90
2022-10-06T03:48:51.126Z,1.00
2022-10-06T03:51:23.325Z,1.80
2022-10-06T03:53:54.797Z,1.30
2022-10-06T03:56:28.186Z,1.10
2022-10-06T03:59:00.647Z,3.10
2022-10-06T04:01:33.260Z,6.40
2022-10-06T04:04:05.265Z,1.90
2022-10-06T04:06:37.600Z,1.40
2022-10-06T04:09:14.757Z,1.30
2022-10-06T04:11:46.662Z,1.20
2022-10-06T04:14:18.266Z,1.30
2022-10-06T04:16:50.548Z,1.20
2022-10-06T04:19:22.064Z,1.90
2022-10-06T04:21:52.413Z,7.80
2022-10-06T04:24:23.029Z,1.80
2022-10-06T04:26:53.924Z,1.60
2022-10-06T04:29:24.241Z,1.90
2022-10-06T04:31:55.461Z,1.70
2022-10-06T04:34:26.501Z,1.40
2022-10-06T04:36:57.117Z,1.30
2022-10-06T04:39:27.491Z,1.50
2022-10-06T04:41:58.175Z,1.30
2022-10-06T04:44:28.598Z,2.30
2022-10-06T04:47:00.855Z,2.00
2022-10-06T04:49:31.806Z,1.70
2022-10-06T04:52:02.448Z,1.70
2022-10-06T04:54:33.992Z,1.80
2022-10-06T04:57:05.856Z,1.70
2022-10-06T04:59:53.707Z,2.40
2022-10-06T05:02:24.927Z,2.40
2022-10-06T05:04:57.870Z,1.30
2022-10-06T05:07:28.580Z,1.30
2022-10-06T05:09:59.870Z,1.80
2022-10-06T05:12:31.155Z,1.40
2022-10-06T05:15:01.580Z,1.60
2022-10-06T05:17:31.926Z,1.30
2022-10-06T05:20:02.238Z,1.50
2022-10-06T05:22:32.589Z,1.10
2022-10-06T05:25:03.603Z,1.50
2022-10-06T05:27:34.218Z,1.30
2022-10-06T05:30:05.105Z,1.30
2022-10-06T05:32:36.332Z,1.10
2022-10-06T05:35:08.908Z,1.40
2022-10-06T05:37:39.690Z,1.50
2022-10-06T05:40:11.503Z,1.30
2022-10-06T05:42:42.128Z,1.90
2022-10-06T05:45:13.879Z,1.50
2022-10-06T05:47:44.610Z,1.60
2022-10-06T05:50:15.268Z,1.70
2022-10-06T05:52:46.542Z,1.30
2022-10-06T05:55:17.700Z,1.60
2022-10-06T05:57:48.907Z,1.50
2022-10-06T06:00:19.945Z,1.30
2022-10-06T06:02:51.304Z,1.40
2022-10-06T06:05:22.302Z,1.90
2022-10-06T06:07:52.927Z,1.40
2022-10-06T06:10:23.516Z,1.40
2022-10-06T06:12:53.863Z,1.40
2022-10-06T06:15:42.202Z,1.60
2022-10-06T06:18:14.787Z,1.70
2022-10-06T06:20:45.445Z,1.90
2022-10-06T06:23:16.436Z,1.40
2022-10-06T06:26:01.410Z,1.80
2022-10-06T06:28:35.391Z,2.40
2022-10-06T06:31:08.192Z,1.60
2022-10-06T06:33:39.924Z,1.10
2022-10-06T06:36:17.441Z,1.50
2022-10-06T06:38:51.929Z,1.80
2022-10-06T06:41:23.801Z,1.20
2022-10-06T06:43:54.887Z,1.70
2022-10-06T06:46:28.062Z,1.60
2022-10-06T06:49:04.286Z,1.40
2022-10-06T06:51:35.632Z,1.40
2022-10-06T06:54:07.484Z,1.10
2022-10-06T06:56:38.949Z,1.70
2022-10-06T06:59:11.843Z,1.50
2022-10-06T07:01:45.555Z,1.50
2022-10-06T07:04:18.099Z,1.60
2022-10-06T07:06:57.233Z,1.60
2022-10-06T07:09:28.298Z,1.40
2022-10-06T07:11:58.634Z,1.50
2022-10-06T07:14:28.965Z,1.70
2022-10-06T07:17:16.829Z,1.40
2022-10-06T07:20:19.710Z,1.50
2022-10-06T07:23:07.572Z,1.50
2022-10-06T07:25:37.884Z,1.20
2022-10-06T07:28:09.696Z,1.30
2022-10-06T07:30:41.241Z,1.50
2022-10-06T07:33:11.861Z,1.40
2022-10-06T07:35:42.346Z,1.50
2022-10-06T07:38:12.724Z,1.10
2022-10-06T07:40:50.545Z,1.30
2022-10-06T07:43:21.283Z,1.30
2022-10-06T07:45:51.835Z,1.30
2022-10-06T07:48:23.833Z,1.30
2022-10-06T07:50:54.890Z,1.20
2022-10-06T07:53:29.712Z,1.00
2022-10-06T07:56:06.893Z,1.40
2022-10-06T07:58:37.849Z,1.90
2022-10-06T08:01:10.813Z,1.20
2022-10-06T08:03:42.902Z,1.20
2022-10-06T08:06:14.316Z,1.10
2022-10-06T08:08:50.228Z,1.30
2022-10-06T08:11:24.396Z,1.10
2022-10-06T08:13:55.147Z,1.00
2022-10-06T08:16:30.143Z,1.00
2022-10-06T08:19:01.637Z,1.10
2022-10-06T08:21:34.418Z,1.20
2022-10-06T08:24:04.932Z,1.20
2022-10-06T08:26:35.970Z,1.30
2022-10-06T08:29:06.331Z,1.30
2022-10-06T08:31:37.149Z,1.70
2022-10-06T08:34:12.013Z,1.10
2022-10-06T08:36:56.970Z,1.50
2022-10-06T08:39:34.461Z,1.20
2022-10-06T08:42:05.028Z,1.50
2022-10-06T08:44:42.462Z,1.20
2022-10-06T08:47:17.742Z,1.30
2022-10-06T08:49:50.547Z,1.20
2022-10-06T08:52:35.868Z,1.30
2022-10-06T08:55:14.678Z,1.10
2022-10-06T08:57:54.365Z,1.50
2022-10-06T09:00:24.655Z,1.00
2022-10-06T09:02:56.965Z,1.50
2022-10-06T09:05:29.892Z,1.40
2022-10-06T09:08:12.517Z,1.40
2022-10-06T09:10:54.847Z,1.60
2022-10-06T09:13:30.393Z,1.20
2022-10-06T09:16:07.276Z,1.50
2022-10-06T09:19:06.833Z,1.30
2022-10-06T09:21:36.389Z,1.10
2022-10-06T09:24:13.821Z,1.30
2022-10-06T09:26:46.350Z,1.20
2022-10-06T09:29:17.672Z,1.10
2022-10-06T09:31:50.786Z,1.00
2022-10-06T09:34:27.169Z,1.20
2022-10-06T09:37:03.765Z,3.10
2022-10-06T09:39:37.206Z,1.30
2022-10-06T09:42:19.602Z,0.90
2022-10-06T09:44:58.364Z,1.50
2022-10-06T09:47:45.960Z,1.00
2022-10-06T09:50:23.050Z,1.30
2022-10-06T09:53:17.026Z,0.90
2022-10-06T09:55:53.641Z,1.30
2022-10-06T09:58:31.465Z,1.30
2022-10-06T10:01:03.941Z,1.40
2022-10-06T10:04:15.528Z,0.90
2022-10-06T10:06:42.345Z,1.60
2022-10-06T10:09:30.385Z,1.70
2022-10-06T10:12:28.933Z,1.30
2022-10-06T10:15:02.475Z,0.90
2022-10-06T10:17:45.764Z,0.90
2022-10-06T10:20:41.864Z,1.00
2022-10-06T10:23:30.926Z,1.20
2022-10-06T10:26:22.066Z,1.20
2022-10-06T10:29:07.930Z,1.30
2022-10-06T10:31:51.542Z,0.90
2022-10-06T10:34:38.206Z,1.50
2022-10-06T10:37:13.458Z,0.80
2022-10-06T10:39:48.785Z,1.10
2022-10-06T10:42:24.288Z,0.90
2022-10-06T10:44:59.143Z,0.70
2022-10-06T10:47:35.871Z,1.00
2022-10-06T10:50:17.448Z,1.00
2022-10-06T10:52:51.717Z,1.10
2022-10-06T10:55:28.544Z,1.00
2022-10-06T10:58:05.513Z,1.00
2022-10-06T11:00:42.597Z,0.90
2022-10-06T11:03:13.006Z,1.50
2022-10-06T11:06:14.736Z,0.80
2022-10-06T11:08:51.004Z,1.00
2022-10-06T11:11:33.018Z,0.90
2022-10-06T11:14:10.927Z,0.90
2022-10-06T11:16:51.266Z,1.20
2022-10-06T11:19:35.033Z,1.20
2022-10-06T11:22:13.732Z,1.10
2022-10-06T11:24:54.540Z,0.90
2022-10-06T11:27:39.716Z,1.00
2022-10-06T11:30:19.522Z,1.10
2022-10-06T11:33:03.927Z,1.30
2022-10-06T11:35:39.918Z,0.90
2022-10-06T11:38:21.590Z,1.10
2022-10-06T11:41:09.872Z,1.30
2022-10-06T11:43:47.380Z,1.20
2022-10-06T11:46:35.617Z,1.20
2022-10-06T11:49:56.032Z,1.20
2022-10-06T11:52:48.287Z,1.50
2022-10-06T11:55:23.835Z,1.10
2022-10-06T12:01:30.899Z,1.40
2022-10-06T12:04:20.639Z,1.10
2022-10-06T12:07:04.822Z,0.90
2022-10-06T12:10:14.895Z,0.80
2022-10-06T12:13:39.129Z,0.80
2022-10-06T12:19:11.992Z,1.20
2022-10-06T12:21:51.496Z,0.90
2022-10-06T12:24:31.283Z,0.90
2022-10-06T12:27:25.701Z,1.50
2022-10-06T12:30:02.932Z,0.90
2022-10-06T12:32:46.392Z,1.20
2022-10-06T12:35:36.885Z,1.00
2022-10-06T12:38:28.606Z,1.20
2022-10-06T12:40:59.668Z,0.90
2022-10-06T12:43:48.721Z,0.80
2022-10-06T12:46:26.754Z,1.20
2022-10-06T12:49:14.069Z,1.00
2022-10-06T12:51:46.016Z,1.00
2022-10-06T12:54:21.346Z,0.90
2022-10-06T12:57:02.714Z,1.00
2022-10-06T12:59:34.846Z,1.50
2022-10-06T13:02:11.397Z,0.90
2022-10-06T13:04:44.919Z,1.10
2022-10-06T13:07:19.988Z,1.50
2022-10-06T13:09:53.713Z,1.10
2022-10-06T13:12:38.603Z,1.30
2022-10-06T13:18:14.172Z,1.40
2022-10-06T13:20:48.139Z,1.20
2022-10-06T13:23:30.429Z,1.00
2022-10-06T13:26:02.537Z,1.10
2022-10-06T13:28:49.670Z,1.10
2022-10-06T13:31:24.029Z,1.30
2022-10-06T13:33:59.712Z,0.90
2022-10-06T13:36:31.462Z,1.30
2022-10-06T13:39:04.457Z,1.30
2022-10-06T13:41:38.079Z,1.10
2022-10-06T13:44:29.259Z,1.00
2022-10-06T13:47:02.234Z,1.20
2022-10-06T13:49:42.041Z,1.20
2022-10-06T13:52:20.511Z,1.10
2022-10-06T13:54:54.871Z,1.10
2022-10-06T13:57:40.395Z,1.30
2022-10-06T14:00:19.844Z,1.10
2022-10-06T14:02:52.534Z,1.20
2022-10-06T14:05:40.350Z,1.10
2022-10-06T14:08:24.771Z,0.80
2022-10-06T14:10:57.904Z,1.10
2022-10-06T14:13:32.306Z,0.90
2022-10-06T14:16:06.824Z,1.10
2022-10-06T14:18:41.438Z,1.20
2022-10-06T14:21:30.163Z,1.00
2022-10-06T14:24:04.763Z,1.20
2022-10-06T14:26:38.469Z,1.20
2022-10-06T14:29:08.982Z,1.20
2022-10-06T14:31:39.664Z,1.40
2022-10-06T14:34:14.658Z,1.10
2022-10-06T14:36:47.317Z,3.10
2022-10-06T14:39:18.670Z,1.30
2022-10-06T14:41:53.644Z,1.50
2022-10-06T14:44:24.776Z,1.60
2022-10-06T14:46:55.372Z,1.50
2022-10-06T14:49:26.328Z,1.60
2022-10-06T14:51:57.050Z,1.40
2022-10-06T14:54:28.681Z,1.20
2022-10-06T14:56:59.370Z,1.30
2022-10-06T14:59:30.132Z,1.40
2022-10-06T15:02:01.076Z,1.70
2022-10-06T15:04:31.750Z,1.30
2022-10-06T15:07:22.213Z,1.40
2022-10-06T15:09:53.167Z,1.30
2022-10-06T15:12:23.558Z,1.60
2022-10-06T15:14:55.129Z,1.40
2022-10-06T15:17:25.875Z,1.60
2022-10-06T15:19:56.839Z,1.20
2022-10-06T15:22:28.164Z,1.50
2022-10-06T15:24:59.355Z,1.60
2022-10-06T15:27:47.739Z,1.60
2022-10-06T15:30:18.745Z,1.50
2022-10-06T15:32:51.072Z,1.50
2022-10-06T15:35:21.501Z,1.40
2022-10-06T15:37:55.313Z,1.40
2022-10-06T15:40:26.465Z,1.50
2022-10-06T15:42:56.836Z,1.70
2022-10-06T15:45:27.695Z,1.50
2022-10-06T15:47:58.343Z,1.60
2022-10-06T15:50:29.400Z,1.50
2022-10-06T15:53:00.181Z,1.70
2022-10-06T15:55:31.207Z,1.60
2022-10-06T15:58:02.230Z,1.60
2022-10-06T16:00:33.248Z,1.80
2022-10-06T16:03:17.010Z,2.00
2022-10-06T16:05:51.874Z,1.60
2022-10-06T16:08:22.796Z,2.10
2022-10-06T16:10:53.605Z,2.00
2022-10-06T16:13:24.344Z,1.80
2022-10-06T16:15:58.327Z,2.10
2022-10-06T16:18:29.597Z,1.60
2022-10-06T16:21:00.490Z,2.30
2022-10-06T16:23:31.432Z,2.10
2022-10-06T16:26:05.208Z,2.10
2022-10-06T16:28:36.047Z,2.20
2022-10-06T16:31:07.080Z,1.90
2022-10-06T16:33:37.554Z,1.90
2022-10-06T16:36:08.837Z,1.90
2022-10-06T16:38:39.240Z,2.10
2022-10-06T16:41:10.771Z,2.20
2022-10-06T16:43:43.208Z,2.00
2022-10-06T16:46:15.481Z,2.40
2022-10-06T16:48:48.982Z,2.50
2022-10-06T16:51:21.049Z,2.40
2022-10-06T16:53:52.921Z,2.40
2022-10-06T16:56:26.788Z,2.20
2022-10-06T16:58:59.180Z,3.30
2022-10-06T17:01:31.990Z,3.50
2022-10-06T17:04:04.090Z,3.30
2022-10-06T17:06:39.206Z,2.80
2022-10-06T17:09:11.914Z,2.70
2022-10-06T17:11:43.411Z,2.70
2022-10-06T17:14:14.279Z,3.60
2022-10-06T17:16:46.631Z,5.60
2022-10-06T17:19:19.362Z,6.30
2022-10-06T17:21:55.758Z,7.60
2022-10-06T17:24:29.233Z,6.70
2022-10-06T17:27:01.047Z,6.40
2022-10-06T17:29:31.698Z,5.50
2022-10-06T17:32:03.489Z,5.10
2022-10-06T17:34:34.751Z,5.00
2022-10-06T17:37:05.570Z,4.40
2022-10-06T17:39:36.403Z,4.20
2022-10-06T17:42:08.270Z,3.70
2022-10-06T17:44:38.707Z,3.50
2022-10-06T17:47:12.637Z,2.80
2022-10-06T17:49:43.830Z,2.80
2022-10-06T17:52:14.242Z,3.30
2022-10-06T17:54:46.344Z,3.10
2022-10-06T17:57:19.923Z,3.20
2022-10-06T17:59:50.821Z,3.10
2022-10-06T18:02:21.773Z,2.40
2022-10-06T18:04:53.658Z,2.80
2022-10-06T18:07:24.704Z,2.90
2022-10-06T18:10:09.798Z,2.70
2022-10-06T18:12:40.675Z,17.50
2022-10-06T18:15:13.092Z,21.90
2022-10-06T18:17:44.016Z,4.30
2022-10-06T18:20:16.116Z,3.30
2022-10-06T18:22:48.616Z,2.90
2022-10-06T18:25:24.440Z,3.10
2022-10-06T18:27:57.720Z,2.70
2022-10-06T18:30:29.536Z,2.50
2022-10-06T18:36:15.288Z,2.10
2022-10-06T18:38:47.456Z,2.20
2022-10-06T18:41:19.953Z,2.10
2022-10-06T18:43:51.191Z,2.40
2022-10-06T18:46:40.448Z,2.30
2022-10-06T18:49:15.331Z,2.10
2022-10-06T18:51:48.619Z,2.20
2022-10-06T18:54:22.281Z,2.20
2022-10-06T18:56:52.867Z,2.60
2022-10-06T18:59:26.342Z,2.60
2022-10-06T19:02:00.324Z,2.70
2022-10-06T19:04:32.798Z,2.70
2022-10-06T19:07:04.092Z,2.70
2022-10-06T19:09:34.994Z,2.70
2022-10-06T19:12:06.285Z,2.90
2022-10-06T19:14:42.905Z,2.80
2022-10-06T19:17:15.151Z,2.50
2022-10-06T19:19:47.965Z,3.10
2022-10-06T19:22:23.825Z,2.90
2022-10-06T19:24:54.249Z,3.00
2022-10-06T19:27:26.117Z,2.70
2022-10-06T19:29:57.428Z,3.00
2022-10-06T19:32:32.740Z,2.90
2022-10-06T19:35:09.237Z,3.20
2022-10-06T19:37:42.264Z,3.50
2022-10-06T19:40:12.973Z,3.00
2022-10-06T19:42:51.116Z,2.90
2022-10-06T19:45:21.770Z,3.00
2022-10-06T19:47:52.467Z,2.90
2022-10-06T19:50:22.843Z,3.10
2022-10-06T19:52:53.522Z,2.70
2022-10-06T19:55:24.273Z,3.20
2022-10-06T19:57:55.200Z,2.90
2022-10-06T20:00:25.518Z,2.40
2022-10-06T20:02:56.556Z,2.60
2022-10-06T20:05:26.874Z,2.20
2022-10-06T20:07:57.615Z,2.60
2022-10-06T20:10:27.952Z,2.10
2022-10-06T20:12:59.171Z,2.90
2022-10-06T20:15:29.825Z,3.00
2022-10-06T20:18:00.193Z,2.80
2022-10-06T20:20:30.629Z,2.90
2022-10-06T20:23:01.653Z,2.50
2022-10-06T20:25:34.170Z,2.60
2022-10-06T20:28:08.856Z,2.40
2022-10-06T20:30:42.347Z,2.00
2022-10-06T20:33:12.775Z,2.50
2022-10-06T20:35:43.358Z,2.20
2022-10-06T20:38:14.686Z,2.00
2022-10-06T20:40:49.216Z,2.10
2022-10-06T20:43:21.214Z,2.10
2022-10-06T20:45:55.753Z,2.00
2022-10-06T20:48:28.811Z,3.40
2022-10-06T20:50:59.740Z,3.40
2022-10-06T20:53:32.437Z,6.10
2022-10-06T20:56:05.322Z,5.00
2022-10-06T20:58:36.299Z,3.20
2022-10-06T21:01:10.677Z,2.70
2022-10-06T21:03:47.570Z,2.30
2022-10-06T21:06:19.074Z,2.10
2022-10-06T21:08:49.877Z,2.20
2022-10-06T21:11:23.034Z,1.90
2022-10-06T21:13:54.941Z,1.80
2022-10-06T21:16:27.621Z,2.30
2022-10-06T21:18:59.224Z,1.90
2022-10-06T21:21:30.116Z,1.80
2022-10-06T21:24:01.976Z,1.80
2022-10-06T21:26:33.938Z,1.80
2022-10-06T21:29:04.939Z,2.00
2022-10-06T21:31:35.543Z,2.30
2022-10-06T21:34:07.663Z,2.10
2022-10-06T21:36:38.506Z,2.10
2022-10-06T21:39:09.352Z,2.50
2022-10-06T21:41:41.516Z,2.10
2022-10-06T21:44:13.559Z,2.40
2022-10-06T21:46:47.512Z,2.00
2022-10-06T21:49:20.039Z,2.10
2022-10-06T21:51:52.559Z,2.00
2022-10-06T21:54:24.092Z,2.20
2022-10-06T21:56:55.610Z,2.40
2022-10-06T21:59:26.530Z,2.10
2022-10-06T22:01:57.599Z,2.10
2022-10-06T22:04:28.362Z,2.00
2022-10-06T22:06:59.006Z,1.80
2022-10-06T22:09:30.516Z,2.00
2022-10-06T22:12:01.291Z,2.00
2022-10-06T22:14:32.630Z,1.80
2022-10-06T22:17:05.122Z,9.60
2022-10-06T22:19:35.839Z,10.30
2022-10-06T22:22:06.783Z,15.60
2022-10-06T22:24:38.364Z,7.80
2022-10-06T22:27:09.067Z,4.40
2022-10-06T22:29:39.902Z,3.30
2022-10-06T22:32:10.841Z,2.80
2022-10-06T22:34:41.475Z,1.80
2022-10-06T22:37:12.103Z,2.20
2022-10-06T22:39:43.353Z,2.10
2022-10-06T22:42:13.919Z,2.00
2022-10-06T22:44:44.511Z,2.00
2022-10-06T22:47:17.806Z,1.80
2022-10-06T22:49:48.540Z,2.40
2022-10-06T22:52:19.581Z,2.10
2022-10-06T22:54:50.216Z,2.40
2022-10-06T22:57:21.152Z,2.10
2022-10-06T22:59:52.091Z,2.50
2022-10-06T23:02:22.722Z,2.40
2022-10-06T23:04:53.354Z,2.10
2022-10-06T23:07:24.299Z,1.50
2022-10-06T23:09:55.030Z,1.80
2022-10-06T23:12:26.154Z,1.80
2022-10-06T23:14:56.808Z,2.20
2022-10-06T23:17:27.740Z,1.70
2022-10-06T23:19:58.579Z,2.20
2022-10-06T23:22:30.336Z,2.10
2022-10-06T23:25:00.968Z,2.20
2022-10-06T23:27:31.597Z,2.00
2022-10-06T23:30:02.331Z,2.00
2022-10-06T23:32:33.477Z,1.80
2022-10-06T23:35:04.809Z,2.10
2022-10-06T23:37:35.456Z,2.30
2022-10-06T23:40:07.342Z,2.10
2022-10-06T23:42:37.961Z,2.40
2022-10-06T23:45:10.796Z,2.10
2022-10-06T23:47:41.608Z,2.40
2022-10-06T23:50:12.914Z,2.40
2022-10-06T23:52:43.500Z,2.00
2022-10-06T23:55:14.690Z,2.10
2022-10-06T23:57:46.171Z,2.10
